Time;durP1;ratioP1;P1;durP2;ratioP2;P2;SDS_P1;SDS_P2;PMS_P1;PMS_P2;Temp;Humidity;BMP_temperature;BMP_pressure;BME280_temperature;BME280_humidity;BME280_pressure;Samples;Min_cycle;Max_cycle;Signal;HPM_P1;HPM_P2
2021/12/13 00:01:50;;;;;;;2.53;1.05;;;20.10;62.30;;;;;;4511785;31;20187;-73
2021/12/13 00:04:19;;;;;;;4.60;0.85;;;20.10;62.40;;;;;;4511851;31;20148;-73
2021/12/13 00:06:55;;;;;;;4.88;0.95;;;20.10;62.30;;;;;;4511386;31;20120;-73
2021/12/13 00:09:24;;;;;;;2.72;0.77;;;20.10;62.30;;;;;;4509876;31;20299;-73
2021/12/13 00:11:54;;;;;;;5.10;0.85;;;20.10;62.30;;;;;;4512979;31;20618;-73
2021/12/13 00:14:27;;;;;;;3.17;0.95;;;20.00;62.30;;;;;;4511036;31;20282;-73
2021/12/13 00:17:03;;;;;;;4.10;0.80;;;20.10;62.40;;;;;;4497878;31;20143;-73
2021/12/13 00:19:37;;;;;;;2.40;0.70;;;20.00;62.30;;;;;;4510963;31;20197;-73
2021/12/13 00:22:13;;;;;;;2.67;0.90;;;20.00;62.40;;;;;;4511147;31;20136;-73
2021/12/13 00:24:42;;;;;;;5.03;0.88;;;20.00;62.40;;;;;;4510432;31;20591;-73
2021/12/13 00:27:16;;;;;;;2.67;0.73;;;20.00;62.40;;;;;;4495212;31;20564;-73
2021/12/13 00:29:59;;;;;;;3.88;0.88;;;20.00;62.50;;;;;;4496276;31;20120;-73
2021/12/13 00:32:39;;;;;;;6.88;0.88;;;20.00;62.40;;;;;;4495174;31;20148;-72
2021/12/13 00:35:13;;;;;;;4.53;0.90;;;20.00;62.40;;;;;;4493566;31;20237;-73
2021/12/13 00:37:44;;;;;;;4.18;0.93;;;20.00;62.40;;;;;;4496146;31;20581;-73
2021/12/13 00:40:15;;;;;;;4.18;0.55;;;19.90;62.40;;;;;;4494052;31;20313;-73
2021/12/13 00:42:50;;;;;;;6.25;0.70;;;20.00;62.40;;;;;;4494710;31;20163;-73
2021/12/13 00:45:19;;;;;;;1.95;0.77;;;20.00;63.30;;;;;;4494813;31;20116;-72
2021/12/13 00:47:45;;;;;;;2.53;0.82;;;19.90;62.40;;;;;;4493607;31;20130;-73
2021/12/13 00:50:22;;;;;;;3.58;0.70;;;19.90;62.40;;;;;;4482226;31;20117;-73
2021/12/13 00:52:50;;;;;;;3.72;0.70;;;19.90;62.40;;;;;;4493584;31;20230;-73
2021/12/13 00:55:20;;;;;;;3.88;0.80;;;19.90;62.40;;;;;;4495622;31;20144;-73
2021/12/13 00:57:50;;;;;;;3.72;0.70;;;19.90;62.50;;;;;;4494337;31;20144;-73
2021/12/13 01:00:32;;;;;;;2.45;0.70;;;19.90;62.50;;;;;;4493494;31;20129;-73
2021/12/13 01:03:17;;;;;;;4.53;0.75;;;19.90;62.40;;;;;;4505942;31;20158;-73
2021/12/13 01:06:05;;;;;;;2.47;0.65;;;19.90;62.40;;;;;;4494051;31;20206;-73
2021/12/13 01:09:08;;;;;;;2.22;0.73;;;19.90;62.40;;;;;;4506384;31;20236;-73
2021/12/13 01:11:55;;;;;;;3.63;0.83;;;19.90;62.40;;;;;;4507823;31;20124;-73
2021/12/13 01:14:28;;;;;;;2.92;0.63;;;19.80;62.30;;;;;;4497378;31;20144;-72
2021/12/13 01:17:11;;;;;;;1.05;0.60;;;19.80;62.50;;;;;;4497088;31;20196;-72
2021/12/13 01:19:52;;;;;;;1.80;0.70;;;19.80;62.50;;;;;;4495226;31;20160;-73
2021/12/13 01:27:59;;;;;;;;;;;19.80;62.40;;;;;;4495610;31;20195;-73
2021/12/13 01:30:36;;;;;;;3.30;0.77;;;19.80;62.50;;;;;;4508058;31;20031;-73
2021/12/13 01:33:07;;;;;;;2.10;0.70;;;19.70;62.40;;;;;;4504955;31;20625;-73
2021/12/13 01:35:38;;;;;;;3.63;0.60;;;19.70;62.50;;;;;;4506358;31;20649;-73
2021/12/13 01:38:18;;;;;;;0.77;0.57;;;19.70;62.50;;;;;;4509922;31;20317;-74
2021/12/13 01:40:52;;;;;;;1.70;0.43;;;19.70;62.50;;;;;;4508175;31;20128;-74
2021/12/13 01:43:27;;;;;;;2.13;0.65;;;19.70;62.50;;;;;;4494349;31;20156;-74
2021/12/13 01:45:55;;;;;;;1.02;0.60;;;19.70;62.50;;;;;;4496679;31;20133;-73
2021/12/13 01:48:37;;;;;;;1.20;0.40;;;19.70;62.60;;;;;;4492299;31;20160;-73
2021/12/13 01:51:08;;;;;;;4.25;0.60;;;19.70;62.50;;;;;;4496659;31;20139;-73
2021/12/13 01:53:55;;;;;;;2.75;0.60;;;19.70;62.50;;;;;;4499597;31;20208;-75
2021/12/13 01:56:53;;;;;;;3.88;0.70;;;19.70;62.50;;;;;;4495937;31;20202;-74
2021/12/13 02:02:09;;;;;;;2.42;0.45;;;19.70;62.60;;;;;;4497113;31;20209;-74
2021/12/13 02:04:37;;;;;;;2.40;0.70;;;19.70;62.50;;;;;;4509441;31;20148;-74
2021/12/13 02:07:05;;;;;;;3.92;0.60;;;19.60;62.50;;;;;;4504015;31;20150;-74
2021/12/13 02:09:39;;;;;;;1.90;0.60;;;19.60;62.50;;;;;;4482463;31;20242;-74
2021/12/13 02:12:15;;;;;;;3.03;0.67;;;19.60;62.60;;;;;;4498875;31;20308;-73
2021/12/13 02:14:50;;;;;;;2.25;0.50;;;19.60;62.50;;;;;;4496332;31;20148;-73
2021/12/13 02:17:21;;;;;;;1.92;0.50;;;19.60;62.60;;;;;;4496664;31;20199;-73
2021/12/13 02:19:59;;;;;;;2.33;0.60;;;19.60;62.50;;;;;;4497200;31;20135;-73
2021/12/13 02:22:28;;;;;;;1.55;0.68;;;19.60;63.40;;;;;;4495438;31;20187;-73
2021/12/13 02:24:56;;;;;;;2.03;0.60;;;19.60;62.60;;;;;;4497466;31;20129;-73
2021/12/13 02:27:27;;;;;;;1.88;0.57;;;19.60;63.40;;;;;;4495950;31;20148;-73
2021/12/13 02:29:57;;;;;;;1.77;0.60;;;19.50;62.50;;;;;;4496743;31;20141;-72
2021/12/13 02:32:27;;;;;;;2.20;0.63;;;19.60;62.60;;;;;;4496166;31;20129;-73
2021/12/13 02:34:56;;;;;;;1.92;0.68;;;19.60;62.60;;;;;;4489307;31;20143;-76
2021/12/13 02:37:25;;;;;;;1.42;0.60;;;19.60;62.70;;;;;;4496169;31;20128;-73
2021/12/13 02:39:56;;;;;;;3.55;0.70;;;19.60;62.60;;;;;;4494275;31;20136;-76
2021/12/13 02:42:23;;;;;;;1.98;0.50;;;19.60;62.70;;;;;;4497117;31;20207;-73
2021/12/13 02:45:01;;;;;;;5.30;0.80;;;19.60;62.70;;;;;;4495761;31;20258;-71
2021/12/13 02:47:41;;;;;;;1.15;0.70;;;19.50;62.70;;;;;;4494781;31;20490;-71
2021/12/13 02:50:15;;;;;;;1.77;0.60;;;19.60;62.80;;;;;;4508490;31;20594;-72
2021/12/13 02:52:41;;;;;;;2.45;0.50;;;19.60;62.70;;;;;;4504940;31;20151;-69
2021/12/13 02:55:12;;;;;;;1.35;0.45;;;19.60;62.80;;;;;;4495240;31;20125;-69
2021/12/13 02:57:42;;;;;;;1.73;0.70;;;19.60;62.80;;;;;;4494623;31;20133;-69
2021/12/13 03:00:29;;;;;;;1.50;0.70;;;19.50;62.80;;;;;;4494668;31;20165;-69
2021/12/13 03:02:58;;;;;;;2.17;0.70;;;19.50;62.80;;;;;;4509835;31;20132;-69
2021/12/13 03:05:35;;;;;;;1.45;0.45;;;19.60;62.90;;;;;;4496960;31;20144;-70
2021/12/13 03:08:18;;;;;;;1.58;0.60;;;19.50;62.90;;;;;;4496500;31;20141;-74
2021/12/13 03:10:49;;;;;;;3.20;0.50;;;19.50;62.90;;;;;;4494720;31;20368;-73
2021/12/13 03:13:17;;;;;;;3.28;0.90;;;19.50;62.90;;;;;;4505468;31;20246;-72
2021/12/13 03:15:56;;;;;;;1.25;0.60;;;19.50;62.90;;;;;;4495226;31;20142;-71
2021/12/13 03:18:32;;;;;;;0.82;0.40;;;19.50;63.00;;;;;;4505854;31;20164;-74
2021/12/13 03:21:08;;;;;;;3.03;0.75;;;19.50;63.00;;;;;;4502694;31;20144;-73
2021/12/13 03:24:17;;;;;;;1.13;0.50;;;19.50;63.00;;;;;;4494744;31;20132;-72
2021/12/13 03:27:03;;;;;;;1.67;0.70;;;19.50;63.00;;;;;;4494124;31;20160;-72
2021/12/13 03:29:57;;;;;;;1.55;0.52;;;19.50;63.00;;;;;;4495292;31;20226;-72
2021/12/13 03:32:23;;;;;;;0.90;0.30;;;19.50;63.00;;;;;;4496787;31;20120;-76
2021/12/13 03:35:17;;;;;;;1.50;0.55;;;19.50;63.10;;;;;;4494114;31;20183;-75
2021/12/13 03:37:43;;;;;;;2.65;0.70;;;19.50;63.10;;;;;;4495469;31;20282;-75
2021/12/13 03:40:17;;;;;;;1.17;0.30;;;19.50;63.10;;;;;;4495457;31;20146;-74
2021/12/13 03:42:51;;;;;;;5.03;0.70;;;19.50;63.10;;;;;;4496089;31;20124;-72
2021/12/13 03:45:35;;;;;;;1.35;0.60;;;19.50;63.10;;;;;;4494258;31;20269;-75
2021/12/13 03:48:02;;;;;;;2.17;0.50;;;19.50;63.10;;;;;;4507237;31;20156;-76
2021/12/13 03:50:45;;;;;;;1.73;0.50;;;19.40;63.10;;;;;;4495920;31;20144;-75
2021/12/13 03:53:17;;;;;;;1.38;0.50;;;19.40;63.20;;;;;;4495810;31;20200;-72
2021/12/13 03:55:48;;;;;;;1.13;0.40;;;19.40;63.20;;;;;;4496276;31;20124;-72
2021/12/13 03:58:18;;;;;;;2.10;0.57;;;19.40;63.20;;;;;;4495828;31;20147;-72
2021/12/13 04:00:58;;;;;;;1.95;0.68;;;19.40;63.30;;;;;;4493914;31;20585;-73
2021/12/13 04:03:26;;;;;;;1.65;0.40;;;19.40;63.30;;;;;;4495528;31;20125;-73
2021/12/13 04:05:56;;;;;;;1.95;0.70;;;19.40;63.30;;;;;;4509358;31;20532;-72
2021/12/13 04:08:23;;;;;;;0.90;0.35;;;19.40;63.40;;;;;;4510514;31;20142;-72
2021/12/13 04:11:11;;;;;;;1.13;0.57;;;19.40;63.40;;;;;;4510326;31;20344;-72
2021/12/13 04:13:46;;;;;;;1.02;0.50;;;19.40;63.40;;;;;;4496461;31;20158;-73
2021/12/13 04:16:36;;;;;;;1.30;0.40;;;19.30;63.30;;;;;;4495362;31;20168;-73
2021/12/13 04:19:10;;;;;;;2.45;0.45;;;19.30;63.30;;;;;;4495490;31;20136;-73
2021/12/13 04:21:57;;;;;;;2.38;0.50;;;19.30;63.40;;;;;;4494073;31;20129;-73
2021/12/13 04:24:41;;;;;;;0.73;0.30;;;19.30;63.30;;;;;;4497015;31;20176;-73
2021/12/13 04:27:20;;;;;;;2.80;0.50;;;19.30;63.30;;;;;;4494037;31;20133;-73
2021/12/13 04:29:48;;;;;;;1.10;0.55;;;19.30;63.30;;;;;;4494895;31;20109;-74
2021/12/13 04:32:23;;;;;;;2.10;0.60;;;19.30;63.30;;;;;;4482090;31;20630;-73
2021/12/13 04:34:57;;;;;;;1.42;0.45;;;19.30;63.30;;;;;;4493907;31;20140;-73
2021/12/13 04:37:26;;;;;;;2.17;0.35;;;19.30;63.20;;;;;;4496569;31;20198;-73
2021/12/13 04:40:05;;;;;;;1.83;0.50;;;19.30;63.30;;;;;;4493581;31;20194;-73
2021/12/13 04:42:31;;;;;;;1.23;0.35;;;19.30;63.20;;;;;;4495133;31;20148;-73
2021/12/13 04:45:09;;;;;;;0.80;0.50;;;19.30;63.20;;;;;;4481247;31;20109;-73
2021/12/13 04:47:55;;;;;;;0.63;0.30;;;19.30;63.20;;;;;;4495219;31;20117;-73
2021/12/13 04:50:26;;;;;;;2.10;0.77;;;19.30;63.20;;;;;;4496412;31;20133;-73
2021/12/13 04:52:53;;;;;;;1.38;0.60;;;19.30;63.20;;;;;;4493568;31;20128;-73
2021/12/13 04:55:25;;;;;;;1.95;0.63;;;19.30;63.20;;;;;;4494845;31;20136;-73
2021/12/13 04:57:53;;;;;;;1.27;0.60;;;19.20;63.20;;;;;;4494441;31;20257;-73
2021/12/13 05:00:22;;;;;;;1.20;0.45;;;19.20;63.20;;;;;;4481058;31;20143;-73
2021/12/13 05:02:52;;;;;;;1.27;0.40;;;19.20;63.10;;;;;;4496118;31;20702;-73
2021/12/13 05:05:19;;;;;;;1.70;0.50;;;19.20;63.10;;;;;;4494303;31;20140;-73
2021/12/13 05:07:49;;;;;;;1.58;0.50;;;19.20;63.10;;;;;;4495131;31;20113;-73
2021/12/13 05:10:16;;;;;;;0.75;0.30;;;19.20;63.10;;;;;;4493773;31;20129;-73
2021/12/13 05:13:14;;;;;;;1.05;0.60;;;19.20;63.10;;;;;;4481369;31;20132;-73
2021/12/13 05:15:44;;;;;;;0.60;0.40;;;19.20;63.00;;;;;;4496135;31;20132;-73
2021/12/13 05:18:25;;;;;;;1.10;0.50;;;19.20;63.10;;;;;;4493499;31;20139;-73
2021/12/13 05:21:12;;;;;;;1.63;0.73;;;19.20;63.00;;;;;;4495670;31;20162;-73
2021/12/13 05:23:51;;;;;;;1.35;0.43;;;19.20;63.00;;;;;;4495290;31;20135;-73
2021/12/13 05:26:43;;;;;;;1.27;0.50;;;19.20;63.00;;;;;;4495937;31;20593;-73
2021/12/13 05:29:26;;;;;;;1.67;0.60;;;19.20;63.00;;;;;;4498115;31;20270;-73
2021/12/13 05:31:59;;;;;;;1.85;0.40;;;19.20;63.00;;;;;;4498010;31;20218;-72
2021/12/13 05:34:35;;;;;;;1.15;0.45;;;19.20;63.00;;;;;;4497096;31;20151;-73
2021/12/13 05:37:04;;;;;;;0.88;0.25;;;19.10;63.00;;;;;;4498936;31;20124;-72
2021/12/13 05:39:30;;;;;;;0.80;0.40;;;19.10;63.00;;;;;;4495549;31;20136;-73
2021/12/13 05:42:04;;;;;;;0.82;0.40;;;19.10;63.00;;;;;;4498473;31;20733;-73
2021/12/13 05:44:44;;;;;;;0.95;0.32;;;19.10;62.90;;;;;;4496386;31;20117;-73
2021/12/13 05:47:21;;;;;;;0.98;0.43;;;19.10;63.00;;;;;;4496269;31;20258;-73
2021/12/13 05:49:48;;;;;;;0.70;0.40;;;19.10;63.00;;;;;;4497752;31;20116;-73
2021/12/13 05:52:18;;;;;;;1.60;0.40;;;19.10;63.00;;;;;;4495690;31;20270;-73
2021/12/13 05:54:52;;;;;;;0.73;0.30;;;19.10;63.00;;;;;;4497261;31;20140;-73
2021/12/13 05:57:41;;;;;;;0.68;0.30;;;19.10;63.00;;;;;;4496103;31;20555;-72
2021/12/13 06:00:26;;;;;;;1.33;0.40;;;19.10;63.00;;;;;;4497053;31;20601;-73
2021/12/13 06:03:16;;;;;;;1.33;0.57;;;19.10;62.90;;;;;;4496814;31;20132;-73
2021/12/13 06:05:48;;;;;;;1.10;0.32;;;19.10;63.00;;;;;;4495407;31;20132;-73
2021/12/13 06:08:19;;;;;;;0.75;0.30;;;19.10;63.00;;;;;;4496732;31;20140;-73
2021/12/13 06:10:50;;;;;;;1.33;0.50;;;19.10;63.00;;;;;;4496034;31;20125;-73
2021/12/13 06:13:42;;;;;;;1.05;0.30;;;19.10;63.00;;;;;;4495606;31;20678;-73
2021/12/13 06:16:09;;;;;;;3.45;0.60;;;19.10;62.90;;;;;;4496043;31;20191;-73
2021/12/13 06:18:58;;;;;;;1.30;0.38;;;19.10;63.00;;;;;;4495283;31;20132;-73
2021/12/13 06:21:40;;;;;;;0.63;0.30;;;19.10;62.90;;;;;;4474605;31;20525;-73
2021/12/13 06:24:07;;;;;;;0.77;0.30;;;19.00;62.90;;;;;;4496167;31;20133;-73
2021/12/13 06:26:33;;;;;;;1.10;0.30;;;19.00;62.90;;;;;;4496245;31;20143;-73
2021/12/13 06:29:03;;;;;;;0.65;0.30;;;19.00;62.90;;;;;;4496384;31;20146;-73
2021/12/13 06:31:42;;;;;;;0.57;0.30;;;19.00;62.90;;;;;;4496308;31;20125;-73
2021/12/13 06:34:17;;;;;;;0.70;0.30;;;19.00;62.90;;;;;;4495700;31;20128;-73
2021/12/13 06:36:49;;;;;;;0.77;0.30;;;19.00;62.80;;;;;;4495861;31;20161;-73
2021/12/13 06:39:30;;;;;;;0.40;0.40;;;19.00;62.90;;;;;;4495687;31;20162;-73
2021/12/13 06:42:04;;;;;;;0.85;0.30;;;19.00;63.80;;;;;;4496468;31;20120;-73
2021/12/13 06:44:56;;;;;;;;;;;19.00;62.90;;;;;;4495755;31;20152;-73
2021/12/13 06:47:23;;;;;;;0.70;0.30;;;19.00;62.80;;;;;;4494699;31;20017;-73
2021/12/13 06:49:59;;;;;;;0.75;0.22;;;19.00;62.90;;;;;;4496179;31;20159;-73
2021/12/13 06:52:32;;;;;;;0.70;0.32;;;19.00;62.90;;;;;;4494605;31;20116;-73
2021/12/13 06:55:12;;;;;;;0.70;0.30;;;19.00;62.90;;;;;;4495927;31;20147;-73
2021/12/13 06:57:46;;;;;;;0.57;0.20;;;18.90;62.90;;;;;;4495230;31;20683;-73
2021/12/13 07:00:21;;;;;;;0.60;0.30;;;19.00;62.90;;;;;;4494945;31;20128;-73
2021/12/13 07:03:09;;;;;;;0.63;0.28;;;19.00;62.90;;;;;;4496207;31;20201;-73
2021/12/13 07:05:45;;;;;;;0.80;0.40;;;19.00;62.80;;;;;;4494513;31;20147;-72
2021/12/13 07:08:32;;;;;;;1.17;0.30;;;19.00;62.90;;;;;;4496907;31;20129;-73
2021/12/13 07:11:15;;;;;;;1.13;0.40;;;18.90;62.80;;;;;;4495197;31;20264;-72
2021/12/13 07:14:04;;;;;;;0.90;0.30;;;18.90;62.80;;;;;;4494481;31;20152;-72
2021/12/13 07:16:33;;;;;;;1.15;0.40;;;18.90;62.90;;;;;;4496045;31;20136;-73
2021/12/13 07:19:22;;;;;;;1.10;0.22;;;18.90;62.90;;;;;;4494472;31;20183;-72
2021/12/13 07:22:00;;;;;;;1.67;0.30;;;18.90;62.90;;;;;;4494855;31;20157;-74
2021/12/13 07:24:42;;;;;;;1.50;0.60;;;18.90;62.90;;;;;;4495873;31;20120;-73
2021/12/13 07:27:13;;;;;;;0.63;0.28;;;18.90;62.90;;;;;;4494254;31;20172;-73
2021/12/13 07:29:44;;;;;;;0.43;0.20;;;18.90;62.90;;;;;;4496448;31;20156;-72
2021/12/13 07:32:22;;;;;;;0.95;0.50;;;18.90;62.90;;;;;;4494317;31;20209;-72
2021/12/13 07:35:04;;;;;;;0.80;0.20;;;18.90;62.90;;;;;;4495401;31;20147;-72
2021/12/13 07:37:42;;;;;;;0.40;0.20;;;18.90;62.90;;;;;;4495634;31;20680;-73
2021/12/13 07:40:32;;;;;;;0.80;0.35;;;18.90;62.90;;;;;;4494072;31;20178;-72
2021/12/13 07:43:01;;;;;;;0.55;0.35;;;18.90;62.90;;;;;;4494963;31;20117;-72
2021/12/13 07:45:48;;;;;;;0.45;0.20;;;18.90;62.90;;;;;;4494852;31;20132;-72
2021/12/13 07:48:40;;;;;;;1.08;0.30;;;18.80;62.80;;;;;;4493928;31;20131;-72
2021/12/13 07:51:15;;;;;;;1.83;0.38;;;18.90;62.80;;;;;;4490564;31;20167;-73
2021/12/13 07:53:58;;;;;;;1.00;0.50;;;18.90;62.90;;;;;;4507135;31;20508;-72
2021/12/13 07:56:39;;;;;;;0.63;0.30;;;18.80;62.80;;;;;;4510569;31;20278;-73
2021/12/13 07:59:10;;;;;;;0.88;0.32;;;18.80;62.70;;;;;;4511370;31;20180;-73
2021/12/13 08:01:54;;;;;;;0.75;0.22;;;18.80;62.80;;;;;;4509621;31;20150;-73
2021/12/13 08:04:24;;;;;;;0.50;0.30;;;18.80;62.70;;;;;;4511039;31;20192;-73
2021/12/13 08:06:58;;;;;;;0.57;0.28;;;18.80;62.80;;;;;;4511812;31;20802;-73
2021/12/13 08:09:27;;;;;;;0.90;0.40;;;18.80;62.80;;;;;;4509196;31;20152;-73
2021/12/13 08:12:25;;;;;;;1.50;0.32;;;18.80;62.80;;;;;;4510916;31;20191;-72
2021/12/13 08:15:08;;;;;;;0.60;0.20;;;18.80;62.70;;;;;;4509842;31;20117;-73
2021/12/13 08:17:45;;;;;;;0.90;0.28;;;18.80;62.80;;;;;;4498910;31;20259;-73
2021/12/13 08:20:20;;;;;;;1.60;0.30;;;18.80;62.90;;;;;;4494221;31;20121;-73
2021/12/13 08:22:50;;;;;;;0.88;0.30;;;18.80;62.90;;;;;;4496236;31;20143;-73
2021/12/13 08:25:25;;;;;;;0.57;0.20;;;18.80;62.90;;;;;;4499674;31;20132;-73
2021/12/13 08:28:15;;;;;;;0.30;0.13;;;18.70;62.80;;;;;;4500415;31;20266;-73
2021/12/13 08:30:51;;;;;;;0.80;0.30;;;18.80;62.80;;;;;;4492661;31;20128;-73
2021/12/13 08:33:24;;;;;;;3.67;0.38;;;18.80;62.80;;;;;;4494038;31;20218;-68
2021/12/13 08:36:09;;;;;;;1.45;0.50;;;18.70;62.90;;;;;;4492403;31;20191;-69
2021/12/13 08:38:47;;;;;;;2.15;1.38;;;18.70;62.50;;;;;;4492303;31;20217;-69
2021/12/13 08:41:28;;;;;;;2.38;1.70;;;18.70;62.50;;;;;;4495715;31;20253;-69
2021/12/13 08:43:54;;;;;;;3.60;1.80;;;18.70;61.90;;;;;;4494152;31;20211;-72
2021/12/13 08:46:40;;;;;;;4.32;1.17;;;18.70;61.90;;;;;;4501804;31;20151;-72
2021/12/13 08:49:26;;;;;;;4.45;1.23;;;18.60;62.20;;;;;;4500479;31;20097;-74
2021/12/13 08:51:55;;;;;;;4.82;1.20;;;18.60;62.40;;;;;;4495097;31;20148;-74
2021/12/13 08:54:41;;;;;;;1.98;1.00;;;18.60;62.50;;;;;;4492335;31;20152;-72
2021/12/13 08:57:31;;;;;;;1.75;1.10;;;18.60;62.60;;;;;;4492841;31;20141;-72
2021/12/13 08:59:59;;;;;;;2.80;1.00;;;18.60;62.60;;;;;;4505320;31;20117;-72
2021/12/13 09:02:41;;;;;;;2.17;0.80;;;18.60;62.60;;;;;;4492950;31;20505;-73
2021/12/13 09:05:20;;;;;;;2.78;1.00;;;18.60;62.60;;;;;;4491666;31;20187;-72
2021/12/13 09:08:14;;;;;;;2.13;0.82;;;18.70;62.70;;;;;;4502030;31;20178;-72
2021/12/13 09:11:05;;;;;;;1.55;0.80;;;18.70;62.60;;;;;;4508533;31;20147;-72
2021/12/13 09:14:08;;;;;;;2.65;0.88;;;18.70;62.60;;;;;;4503433;31;20139;-71
2021/12/13 09:17:10;;;;;;;1.65;0.65;;;18.80;62.60;;;;;;4510766;31;20175;-72
2021/12/13 09:19:51;;;;;;;1.48;0.75;;;18.90;62.30;;;;;;4509402;31;20147;-73
2021/12/13 09:22:29;;;;;;;3.38;0.90;;;19.00;62.10;;;;;;4493429;31;20165;-74
2021/12/13 09:25:21;;;;;;;1.60;0.60;;;19.20;61.90;;;;;;4493703;31;20156;-77
2021/12/13 09:27:47;;;;;;;2.10;0.60;;;19.30;61.80;;;;;;4493937;31;20144;-74
2021/12/13 09:30:24;;;;;;;2.15;0.63;;;19.40;61.60;;;;;;4508223;31;20158;-73
2021/12/13 09:32:55;;;;;;;2.95;0.50;;;19.40;61.40;;;;;;4494899;31;20148;-67
2021/12/13 09:35:33;;;;;;;3.58;0.45;;;19.60;61.30;;;;;;4492610;31;20171;-70
2021/12/13 09:38:22;;;;;;;1.35;0.80;;;19.60;61.80;;;;;;4504001;31;20168;-77
2021/12/13 09:41:07;;;;;;;3.17;1.00;;;19.80;60.70;;;;;;4496226;31;20120;-75
2021/12/13 09:43:39;;;;;;;1.15;0.70;;;19.90;60.40;;;;;;4492862;31;20194;-72
2021/12/13 09:46:06;;;;;;;2.03;0.70;;;20.10;60.10;;;;;;4493716;31;20124;-72
2021/12/13 09:48:42;;;;;;;3.50;1.02;;;20.10;59.80;;;;;;4492220;31;20129;-74
2021/12/13 09:51:16;;;;;;;2.60;0.88;;;20.20;59.50;;;;;;4497109;31;20144;-73
2021/12/13 09:53:42;;;;;;;0.80;0.70;;;20.40;59.30;;;;;;4493604;31;20283;-70
2021/12/13 09:56:16;;;;;;;3.90;0.90;;;20.50;59.10;;;;;;4492124;31;20132;-70
2021/12/13 09:58:54;;;;;;;;;;;20.50;58.90;;;;;;4494025;31;20324;-72
2021/12/13 10:01:28;;;;;;;3.67;1.25;;;20.60;59.00;;;;;;4491961;31;20135;-79
2021/12/13 10:04:08;;;;;;;2.00;1.10;;;20.50;58.90;;;;;;4494449;31;20206;-75
2021/12/13 10:06:37;;;;;;;2.42;1.10;;;20.50;58.90;;;;;;4493402;31;20132;-72
2021/12/13 10:09:20;;;;;;;3.42;1.27;;;20.50;58.90;;;;;;4491765;31;20189;-72
2021/12/13 10:11:46;;;;;;;2.78;1.02;;;20.50;60.00;;;;;;4503707;31;20168;-73
2021/12/13 10:14:15;;;;;;;1.95;0.90;;;20.40;59.10;;;;;;4494278;31;20116;-71
2021/12/13 10:16:43;;;;;;;1.63;1.15;;;20.40;59.20;;;;;;4495629;31;20172;-70
2021/12/13 10:19:18;;;;;;;5.22;1.13;;;20.30;59.40;;;;;;4494263;31;20143;-72
2021/12/13 10:21:46;;;;;;;1.48;0.80;;;20.30;59.50;;;;;;4501600;31;20128;-78
2021/12/13 10:24:27;;;;;;;1.73;1.10;;;20.20;59.70;;;;;;4497286;31;20486;-75
2021/12/13 10:26:59;;;;;;;1.70;1.10;;;20.20;59.90;;;;;;4503892;31;20282;-73
2021/12/13 10:29:26;;;;;;;2.22;1.30;;;20.20;59.90;;;;;;4502370;31;20129;-74
2021/12/13 10:32:00;;;;;;;3.60;1.10;;;20.10;59.90;;;;;;4493788;31;20178;-75
2021/12/13 10:34:30;;;;;;;5.47;1.58;;;20.10;60.00;;;;;;4502438;31;20635;-72
2021/12/13 10:37:05;;;;;;;2.65;1.55;;;20.10;60.10;;;;;;4497548;31;20136;-74
2021/12/13 10:39:37;;;;;;;3.70;1.10;;;20.10;60.10;;;;;;4496312;31;20522;-73
2021/12/13 10:42:11;;;;;;;2.67;1.10;;;20.10;60.20;;;;;;4499094;31;20136;-72
2021/12/13 10:44:43;;;;;;;2.88;1.20;;;20.10;60.30;;;;;;4500449;31;20491;-76
2021/12/13 10:47:14;;;;;;;2.30;1.00;;;20.10;60.40;;;;;;4503221;31;20194;-72
2021/12/13 10:49:44;;;;;;;2.40;1.00;;;20.10;60.30;;;;;;4496004;31;20255;-76
2021/12/13 10:52:16;;;;;;;2.97;1.25;;;20.10;60.30;;;;;;4490838;31;20152;-72
2021/12/13 10:54:51;;;;;;;3.15;1.10;;;20.10;60.30;;;;;;4495442;31;20670;-71
2021/12/13 10:57:27;;;;;;;1.65;1.00;;;20.10;60.30;;;;;;4499166;31;20144;-71
2021/12/13 10:59:55;;;;;;;3.22;1.20;;;20.10;60.30;;;;;;4492971;31;20547;-73
2021/12/13 11:02:31;;;;;;;4.07;1.10;;;20.10;60.30;;;;;;4492906;31;20164;-74
2021/12/13 11:05:02;;;;;;;1.38;1.13;;;20.10;60.40;;;;;;4496209;31;20132;-79
2021/12/13 11:07:31;;;;;;;2.72;1.20;;;20.10;60.40;;;;;;4501565;31;20675;-82
2021/12/13 11:09:59;;;;;;;4.57;1.33;;;20.10;60.50;;;;;;4480955;31;20482;-79
2021/12/13 11:12:32;;;;;;;2.83;1.40;;;20.10;60.50;;;;;;4497752;31;20129;-81
2021/12/13 11:15:08;;;;;;;2.83;1.23;;;20.10;60.50;;;;;;4497213;31;20124;-76
2021/12/13 11:17:35;;;;;;;2.38;1.40;;;20.10;60.50;;;;;;4494818;31;20117;-79
2021/12/13 11:20:09;;;;;;;4.10;1.25;;;20.10;60.50;;;;;;4496012;31;20129;-74
2021/12/13 11:22:35;;;;;;;2.53;1.40;;;20.10;60.40;;;;;;4492488;31;20611;-77
2021/12/13 11:25:10;;;;;;;2.75;1.33;;;20.10;60.40;;;;;;4496614;31;20133;-78
2021/12/13 11:27:36;;;;;;;4.63;1.52;;;20.10;60.40;;;;;;4495279;31;20213;-76
2021/12/13 11:30:11;;;;;;;2.08;1.20;;;20.10;60.40;;;;;;4502210;31;20136;-76
2021/12/13 11:32:39;;;;;;;2.83;1.48;;;20.10;60.30;;;;;;4503868;31;20197;-75
2021/12/13 11:35:28;;;;;;;2.13;1.30;;;20.10;60.20;;;;;;4493201;31;21310;-74
2021/12/13 11:38:20;;;;;;;4.63;1.20;;;20.00;60.30;;;;;;4497597;31;20175;-73
2021/12/13 11:41:21;;;;;;;1.92;1.13;;;20.00;60.30;;;;;;4499564;31;20217;-73
2021/12/13 11:44:35;;;;;;;4.30;1.23;;;20.00;60.70;;;;;;4491120;31;20148;-74
2021/12/13 11:47:13;;;;;;;3.13;1.40;;;19.90;60.70;;;;;;4493795;31;20570;-74
2021/12/13 11:50:18;;;;;;;3.42;1.45;;;19.90;60.80;;;;;;4494191;31;20276;-73
2021/12/13 11:53:12;;;;;;;6.75;1.83;;;19.80;60.80;;;;;;4494273;31;20132;-75
2021/12/13 11:56:08;;;;;;;5.60;1.98;;;19.80;60.90;;;;;;4501728;31;20140;-75
2021/12/13 11:58:52;;;;;;;3.60;2.03;;;19.70;60.60;;;;;;4496051;31;20116;-73
2021/12/13 12:01:40;;;;;;;6.63;1.90;;;19.70;60.70;;;;;;4494373;31;20147;-77
2021/12/13 12:04:27;;;;;;;5.43;1.83;;;19.70;61.10;;;;;;4495148;31;20630;-77
2021/12/13 12:07:12;;;;;;;5.88;2.10;;;19.60;62.00;;;;;;4495725;31;20555;-76
2021/12/13 12:10:05;;;;;;;3.40;2.00;;;19.60;62.00;;;;;;4494516;31;20617;-76
2021/12/13 12:12:55;;;;;;;9.47;2.10;;;19.60;62.00;;;;;;4493827;31;20198;-78
2021/12/13 12:15:25;;;;;;;5.93;1.70;;;19.60;62.00;;;;;;4494107;31;20266;-73
2021/12/13 12:17:54;;;;;;;4.68;1.60;;;19.60;61.90;;;;;;4492327;31;20610;-81
2021/12/13 12:20:30;;;;;;;9.10;2.10;;;19.70;61.80;;;;;;4495667;31;20158;-72
2021/12/13 12:23:04;;;;;;;4.10;1.98;;;19.70;61.70;;;;;;4493810;31;20604;-72
2021/12/13 12:25:33;;;;;;;7.07;1.75;;;19.80;61.80;;;;;;4493781;31;20151;-72
2021/12/13 12:28:07;;;;;;;3.17;1.77;;;19.80;61.70;;;;;;4494513;31;20136;-71
2021/12/13 12:30:38;;;;;;;5.07;1.50;;;19.80;61.80;;;;;;4497947;31;20124;-73
2021/12/13 12:33:10;;;;;;;3.55;1.55;;;19.80;61.90;;;;;;4495128;31;20128;-72
2021/12/13 12:35:48;;;;;;;4.95;1.60;;;19.90;62.00;;;;;;4493290;31;20205;-71
2021/12/13 12:38:48;;;;;;;5.22;1.70;;;19.90;62.00;;;;;;4494433;31;20574;-71
2021/12/13 12:41:32;;;;;;;6.32;1.80;;;19.90;61.90;;;;;;4495092;31;20140;-71
2021/12/13 12:43:58;;;;;;;3.95;1.70;;;19.90;62.00;;;;;;4493643;31;20473;-71
2021/12/13 12:46:25;;;;;;;4.18;1.92;;;19.90;61.90;;;;;;4480415;31;20566;-72
2021/12/13 12:48:54;;;;;;;8.73;1.77;;;19.90;62.00;;;;;;4491860;31;20247;-72
2021/12/13 12:51:29;;;;;;;6.38;1.98;;;20.00;62.10;;;;;;4494151;31;20271;-69
2021/12/13 12:54:04;;;;;;;5.35;2.00;;;20.00;62.20;;;;;;4493879;31;20294;-69
2021/12/13 12:56:38;;;;;;;4.20;2.33;;;20.00;62.00;;;;;;4493782;31;20629;-73
2021/12/13 12:59:09;;;;;;;4.28;1.98;;;20.00;61.60;;;;;;4493637;31;20140;-72
2021/12/13 13:01:39;;;;;;;4.18;2.00;;;20.00;61.30;;;;;;4494631;31;20144;-72
2021/12/13 13:04:22;;;;;;;4.20;1.70;;;20.00;61.20;;;;;;4493846;31;20282;-74
2021/12/13 13:07:08;;;;;;;3.30;1.80;;;20.00;61.10;;;;;;4494082;31;20182;-70
2021/12/13 13:09:49;;;;;;;6.90;1.70;;;20.00;61.10;;;;;;4491210;31;20136;-69
2021/12/13 13:12:32;;;;;;;4.70;2.15;;;20.00;61.10;;;;;;4495138;31;20136;-68
2021/12/13 13:15:06;;;;;;;4.28;1.95;;;20.10;61.20;;;;;;4507393;31;20116;-69
2021/12/13 13:17:38;;;;;;;2.95;1.80;;;20.00;61.00;;;;;;4507734;31;20132;-67
2021/12/13 13:20:12;;;;;;;4.32;1.85;;;20.10;61.00;;;;;;4508939;31;20245;-68
2021/12/13 13:22:42;;;;;;;4.93;1.60;;;20.10;60.90;;;;;;4508705;31;20281;-72
2021/12/13 13:25:16;;;;;;;3.58;1.58;;;20.10;60.80;;;;;;4505847;31;20222;-72
2021/12/13 13:27:48;;;;;;;8.32;1.60;;;20.10;60.70;;;;;;4492238;31;20306;-68
2021/12/13 13:30:31;;;;;;;3.67;1.35;;;20.20;60.70;;;;;;4491907;31;20133;-71
2021/12/13 13:32:57;;;;;;;3.75;1.40;;;20.20;60.80;;;;;;4493510;31;20203;-71
2021/12/13 13:35:24;;;;;;;3.22;1.45;;;20.20;60.80;;;;;;4491660;31;20139;-71
2021/12/13 13:37:50;;;;;;;2.38;1.42;;;20.20;60.80;;;;;;4493260;31;20289;-71
2021/12/13 13:40:24;;;;;;;6.25;1.55;;;20.30;60.80;;;;;;4491855;31;20712;-72
2021/12/13 13:42:59;;;;;;;5.80;1.65;;;20.30;60.70;;;;;;4493623;31;20288;-73
2021/12/13 13:45:31;;;;;;;3.88;1.40;;;20.40;60.50;;;;;;4494060;31;20202;-71